VOML/IXE METAR and TAF weather

Enter ICAO airport designator
Station Type Date Time Source
VOML METAR 2021/07/29 09:30 UTC NOAA

VOML 290930Z 27006KT 6000 FEW012 SCT020 BKN080 29/24 Q1009 NOSIG


Station Type Date Time Source
VOML Decoded METAR 2021/07/29 09:30 UTC NOAA

Mangalore / Bajpe, India (VOML) 12-55N 074-53E 102M
Jul 29, 2021 - 05:30 AM EDT / 2021.07.29 0930 UTC
Wind: from the W (270 degrees) at 7 MPH (6 KT):0
Visibility: 3 mile(s):0
Sky conditions: mostly cloudy
Temperature: 84 F (29 C)
Dew Point: 75 F (24 C)
Relative Humidity: 74%
Pressure (altimeter): 29.80 in. Hg (1009 hPa)
ob: VOML 290930Z 27006KT 6000 FEW012 SCT020 BKN080 29/24 Q1009 NOSIG
cycle: 9

Station Type Date Time Source
VOML TAF 2021/07/29 06:00 UTC NOAA

TAF VOML 290500Z 2906/3012 27010KT 6000 FEW008 SCT012 BKN080
TEMPO 2909/2915 4000 RA DZ BR SCT005 SCT012 FEW025CB BKN080
BECMG 2918/2919 VRB02KT
TEMPO 2922/3003 3000 RA DZ BR SCT005 SCT012 BKN080
BECMG 3005/3006 27010KT
TEMPO 3009/3012 3000 RA BR SCT005 SCT012 FEW025CB BKN080

Example: see airport list